createdAt,value
2022-12-09T00:01:30.179Z,84.56
2022-12-09T00:03:58.136Z,85.22
2022-12-09T00:06:28.162Z,85.30
2022-12-09T00:08:58.746Z,85.65
2022-12-09T00:11:27.149Z,85.20
2022-12-09T00:13:58.055Z,85.75
2022-12-09T00:16:26.692Z,85.80
2022-12-09T00:18:54.792Z,85.58
2022-12-09T00:21:28.112Z,85.86
2022-12-09T00:23:58.668Z,86.44
2022-12-09T00:26:28.114Z,86.43
2022-12-09T00:28:57.783Z,86.96
2022-12-09T00:31:27.122Z,87.08
2022-12-09T00:33:58.017Z,87.15
2022-12-09T00:36:25.810Z,87.14
2022-12-09T00:38:55.041Z,87.62
2022-12-09T00:41:24.523Z,88.04
2022-12-09T00:43:52.541Z,87.97
2022-12-09T00:46:20.227Z,88.49
2022-12-09T00:48:48.290Z,88.77
2022-12-09T00:51:19.033Z,88.18
2022-12-09T00:53:47.416Z,88.29
2022-12-09T00:56:15.408Z,88.60
2022-12-09T00:58:44.548Z,88.79
2022-12-09T01:01:12.384Z,88.61
2022-12-09T01:03:40.509Z,88.75
2022-12-09T01:06:10.161Z,88.78
2022-12-09T01:08:39.346Z,88.76
2022-12-09T01:11:11.825Z,88.75
2022-12-09T01:13:40.799Z,88.86
2022-12-09T01:16:16.703Z,88.50
2022-12-09T01:18:45.015Z,88.31
2022-12-09T01:21:12.808Z,88.05
2022-12-09T01:23:40.805Z,88.66
2022-12-09T01:26:09.185Z,88.52
2022-12-09T01:28:39.657Z,88.33
2022-12-09T01:31:09.499Z,88.67
2022-12-09T01:33:38.560Z,88.98
2022-12-09T01:36:11.211Z,88.90
2022-12-09T01:38:38.961Z,88.45
2022-12-09T01:41:07.165Z,88.45
2022-12-09T01:43:35.064Z,88.56
2022-12-09T01:46:03.294Z,88.03
2022-12-09T01:48:34.362Z,87.68
2022-12-09T01:51:10.265Z,87.73
2022-12-09T01:53:40.683Z,87.63
2022-12-09T01:56:12.689Z,88.07
2022-12-09T01:58:40.434Z,88.60
2022-12-09T02:01:08.508Z,89.60
2022-12-09T02:03:36.314Z,90.15
2022-12-09T02:06:05.722Z,90.54
2022-12-09T02:08:33.409Z,90.63
2022-12-09T02:11:12.855Z,91.02
2022-12-09T02:13:48.494Z,90.97
2022-12-09T02:16:20.858Z,91.06
2022-12-09T02:18:56.132Z,91.68
2022-12-09T02:21:29.698Z,91.93
2022-12-09T02:24:04.753Z,91.85
2022-12-09T02:26:41.439Z,92.17
2022-12-09T02:29:42.325Z,92.33
2022-12-09T02:32:38.423Z,91.82
2022-12-09T02:35:13.547Z,91.99
2022-12-09T02:37:45.664Z,92.39
2022-12-09T02:40:19.468Z,93.06
2022-12-09T02:42:50.165Z,92.25
2022-12-09T02:45:21.053Z,92.13
2022-12-09T02:47:52.767Z,92.42
2022-12-09T02:50:26.586Z,92.21
2022-12-09T02:52:56.318Z,92.55
2022-12-09T02:55:24.418Z,92.58
2022-12-09T02:57:57.223Z,92.53
2022-12-09T03:00:25.138Z,92.97
2022-12-09T03:02:57.829Z,92.80
2022-12-09T03:05:38.829Z,93.10
2022-12-09T03:08:15.239Z,93.10
2022-12-09T03:10:50.803Z,93.42
2022-12-09T03:13:27.292Z,93.39
2022-12-09T03:16:00.205Z,93.57
2022-12-09T03:18:31.323Z,93.00
2022-12-09T03:21:03.106Z,93.18
2022-12-09T03:23:32.767Z,93.56
2022-12-09T03:26:03.401Z,93.76
2022-12-09T03:28:35.948Z,93.57
2022-12-09T03:31:08.556Z,93.24
2022-12-09T03:33:36.418Z,93.45
2022-12-09T03:36:10.726Z,93.31
2022-12-09T03:38:41.637Z,93.43
2022-12-09T03:41:17.849Z,93.58
2022-12-09T03:43:53.072Z,93.84
2022-12-09T03:46:22.146Z,93.80
2022-12-09T03:48:50.802Z,94.03
2022-12-09T03:51:23.848Z,94.00
2022-12-09T03:53:57.308Z,93.60
2022-12-09T03:56:29.379Z,93.47
2022-12-09T03:59:00.687Z,94.08
2022-12-09T04:01:30.411Z,94.11
2022-12-09T04:03:58.591Z,94.23
2022-12-09T04:06:27.886Z,94.31
2022-12-09T04:08:59.431Z,94.32
2022-12-09T04:11:30.185Z,94.47
2022-12-09T04:13:57.895Z,94.17
2022-12-09T04:16:25.967Z,94.27
2022-12-09T04:18:53.680Z,94.40
2022-12-09T04:21:21.413Z,94.46
2022-12-09T04:23:50.325Z,94.61
2022-12-09T04:26:20.715Z,94.29
2022-12-09T04:28:48.761Z,94.36
2022-12-09T04:31:18.936Z,94.88
2022-12-09T04:33:47.521Z,94.61
2022-12-09T04:36:18.678Z,94.66
2022-12-09T04:38:47.223Z,94.74
2022-12-09T04:41:16.960Z,94.70
2022-12-09T04:43:44.749Z,94.40
2022-12-09T04:46:14.409Z,94.48
2022-12-09T04:48:42.509Z,94.63
2022-12-09T04:51:11.365Z,94.49
2022-12-09T04:53:39.465Z,94.41
2022-12-09T04:56:10.061Z,94.61
2022-12-09T04:58:39.679Z,94.81
2022-12-09T05:01:08.297Z,94.87
2022-12-09T05:03:36.771Z,94.50
2022-12-09T05:06:05.759Z,94.77
2022-12-09T05:08:34.152Z,94.81
2022-12-09T05:11:02.312Z,94.45
2022-12-09T05:13:30.910Z,94.63
2022-12-09T05:16:04.251Z,94.48
2022-12-09T05:18:32.927Z,94.54
2022-12-09T05:21:00.678Z,94.33
2022-12-09T05:23:28.701Z,93.93
2022-12-09T05:25:56.626Z,94.09
2022-12-09T05:28:24.727Z,94.29
2022-12-09T05:30:52.621Z,94.11
2022-12-09T05:33:21.806Z,94.11
2022-12-09T05:35:53.046Z,93.95
2022-12-09T05:38:21.887Z,93.83
2022-12-09T05:40:49.821Z,94.12
2022-12-09T05:43:17.823Z,94.26
2022-12-09T05:45:46.082Z,94.32
2022-12-09T05:48:14.048Z,93.89
2022-12-09T05:50:43.392Z,94.07
2022-12-09T05:53:11.333Z,93.74
2022-12-09T05:55:42.341Z,93.54
2022-12-09T05:58:10.502Z,93.32
2022-12-09T06:00:38.163Z,93.11
2022-12-09T06:03:06.159Z,93.01
2022-12-09T06:05:34.526Z,93.12
2022-12-09T06:08:06.879Z,93.34
2022-12-09T06:10:35.628Z,93.32
2022-12-09T06:13:03.679Z,93.16
2022-12-09T06:15:33.664Z,93.27
2022-12-09T06:18:02.067Z,92.84
2022-12-09T06:20:29.996Z,92.69
2022-12-09T06:22:58.232Z,92.71
2022-12-09T06:25:27.369Z,93.03
2022-12-09T06:27:55.125Z,93.41
2022-12-09T06:30:23.395Z,93.44
2022-12-09T06:32:51.161Z,93.48
2022-12-09T06:35:19.040Z,93.48
2022-12-09T06:37:47.067Z,93.11
2022-12-09T06:40:15.115Z,93.12
2022-12-09T06:42:44.503Z,92.96
2022-12-09T06:45:13.053Z,93.02
2022-12-09T06:47:41.333Z,93.10
2022-12-09T06:50:10.575Z,93.01
2022-12-09T06:52:40.063Z,92.98
2022-12-09T06:55:10.040Z,92.99
2022-12-09T06:57:38.211Z,93.10
2022-12-09T07:00:09.111Z,93.16
2022-12-09T07:02:37.630Z,92.89
2022-12-09T07:05:07.600Z,92.96
2022-12-09T07:07:36.222Z,93.33
2022-12-09T07:10:04.990Z,93.19
2022-12-09T07:12:32.849Z,93.05
2022-12-09T07:15:00.728Z,93.09
2022-12-09T07:17:29.800Z,93.13
2022-12-09T07:20:03.347Z,93.06
2022-12-09T07:22:34.913Z,93.01
2022-12-09T07:25:02.829Z,93.43
2022-12-09T07:27:30.990Z,92.73
2022-12-09T07:29:59.112Z,92.75
2022-12-09T07:32:27.312Z,92.61
2022-12-09T07:34:56.513Z,92.73
2022-12-09T07:37:24.505Z,92.40
2022-12-09T07:39:52.125Z,93.21
2022-12-09T07:42:19.794Z,92.95
2022-12-09T07:44:49.147Z,92.92
2022-12-09T07:47:17.141Z,92.63
2022-12-09T07:49:45.307Z,92.73
2022-12-09T07:52:14.632Z,91.95
2022-12-09T07:54:42.168Z,92.47
2022-12-09T07:57:10.768Z,92.99
2022-12-09T07:59:38.566Z,92.02
2022-12-09T08:02:06.976Z,91.95
2022-12-09T08:04:37.652Z,92.35
2022-12-09T08:07:05.599Z,92.61
2022-12-09T08:09:35.089Z,92.44
2022-12-09T08:12:04.447Z,92.35
2022-12-09T08:14:32.927Z,92.39
2022-12-09T08:17:00.742Z,92.21
2022-12-09T08:19:28.912Z,92.30
2022-12-09T08:21:57.425Z,92.34
2022-12-09T08:24:25.433Z,92.64
2022-12-09T08:26:55.036Z,92.50
2022-12-09T08:29:23.044Z,91.99
2022-12-09T08:31:51.326Z,92.57
2022-12-09T08:34:19.800Z,92.33
2022-12-09T08:36:47.735Z,92.39
2022-12-09T08:39:16.298Z,92.38
2022-12-09T08:41:44.783Z,92.40
2022-12-09T08:44:16.254Z,92.12
2022-12-09T08:46:46.379Z,92.49
2022-12-09T08:49:18.060Z,91.84
2022-12-09T08:51:47.506Z,91.80
2022-12-09T08:54:15.953Z,91.75
2022-12-09T08:56:45.574Z,91.78
2022-12-09T08:59:15.301Z,91.68
2022-12-09T09:01:43.125Z,91.59
2022-12-09T09:04:13.409Z,91.38
2022-12-09T09:06:43.516Z,91.34
2022-12-09T09:09:13.360Z,91.33
2022-12-09T09:11:42.088Z,90.57
2022-12-09T09:14:12.433Z,90.30
2022-12-09T09:16:44.077Z,88.11
2022-12-09T09:19:17.571Z,88.02
2022-12-09T09:21:45.755Z,87.82
2022-12-09T09:24:16.242Z,86.13
2022-12-09T09:26:44.946Z,87.71
2022-12-09T09:29:13.692Z,86.04
2022-12-09T09:31:43.122Z,85.86
2022-12-09T09:34:11.688Z,84.38
2022-12-09T09:36:41.529Z,82.19
2022-12-09T09:39:09.809Z,83.77
2022-12-09T09:41:45.489Z,83.24
2022-12-09T09:44:20.562Z,82.44
2022-12-09T09:46:51.148Z,84.01
2022-12-09T09:49:25.712Z,83.21
2022-12-09T09:51:54.235Z,84.70
2022-12-09T09:54:22.130Z,83.24
2022-12-09T09:56:55.436Z,83.30
2022-12-09T09:59:32.623Z,83.54
2022-12-09T10:02:18.293Z,83.57
2022-12-09T10:04:59.190Z,83.76
2022-12-09T10:07:33.378Z,86.17
2022-12-09T10:10:12.654Z,83.46
2022-12-09T10:12:50.672Z,82.11
2022-12-09T10:15:25.009Z,82.19
2022-12-09T10:17:56.362Z,82.39
2022-12-09T10:20:26.999Z,82.24
2022-12-09T10:23:00.938Z,81.22
2022-12-09T10:25:31.275Z,80.24
2022-12-09T10:28:06.636Z,81.93
2022-12-09T10:30:41.805Z,82.04
2022-12-09T10:33:14.790Z,81.08
2022-12-09T10:35:43.375Z,78.92
2022-12-09T10:38:13.350Z,79.56
2022-12-09T10:40:55.108Z,79.61
2022-12-09T10:43:38.848Z,78.62
2022-12-09T10:46:19.655Z,79.77
2022-12-09T10:48:57.539Z,79.59
2022-12-09T10:51:29.183Z,79.05
2022-12-09T10:54:01.009Z,82.07
2022-12-09T10:56:31.540Z,80.70
2022-12-09T10:59:20.370Z,80.16
2022-12-09T11:01:50.675Z,80.86
2022-12-09T11:04:25.230Z,80.90
2022-12-09T11:06:59.313Z,79.50
2022-12-09T11:09:30.215Z,80.27
2022-12-09T11:12:00.032Z,79.83
2022-12-09T11:14:32.837Z,79.34
2022-12-09T11:17:14.457Z,78.70
2022-12-09T11:19:46.335Z,78.32
2022-12-09T11:22:23.290Z,79.39
2022-12-09T11:24:53.648Z,78.72
2022-12-09T11:27:31.034Z,77.66
2022-12-09T11:30:13.168Z,78.22
2022-12-09T11:32:56.962Z,78.41
2022-12-09T11:35:32.270Z,78.55
2022-12-09T11:38:04.326Z,78.21
2022-12-09T11:40:33.482Z,77.12
2022-12-09T11:43:01.148Z,77.71
2022-12-09T11:45:31.880Z,75.97
2022-12-09T11:48:27.701Z,76.71
2022-12-09T11:50:58.115Z,78.09
2022-12-09T11:53:29.033Z,77.95
2022-12-09T11:56:01.371Z,78.08
2022-12-09T11:58:36.168Z,78.80
2022-12-09T12:01:10.267Z,80.29
2022-12-09T12:03:42.025Z,80.27
2022-12-09T12:06:17.331Z,79.07
2022-12-09T12:08:50.579Z,79.60
2022-12-09T12:11:22.023Z,79.18
2022-12-09T12:13:51.130Z,79.64
2022-12-09T12:16:23.500Z,81.47
2022-12-09T12:18:54.622Z,82.90
2022-12-09T12:21:55.228Z,80.74
2022-12-09T12:24:37.870Z,79.94
2022-12-09T12:27:22.490Z,79.82
2022-12-09T12:29:57.286Z,79.76
2022-12-09T12:32:34.336Z,79.22
2022-12-09T12:35:22.924Z,79.74
2022-12-09T12:38:05.566Z,79.66
2022-12-09T12:40:40.824Z,79.01
2022-12-09T12:43:42.284Z,80.31
2022-12-09T12:46:29.509Z,80.61
2022-12-09T12:49:16.886Z,81.24
2022-12-09T12:51:59.635Z,81.64
2022-12-09T12:54:40.852Z,81.54
2022-12-09T12:57:17.912Z,82.45
2022-12-09T12:59:54.575Z,82.92
2022-12-09T13:02:38.495Z,82.64
2022-12-09T13:05:16.671Z,82.61
2022-12-09T13:07:49.225Z,82.44
2022-12-09T13:10:23.306Z,82.80
2022-12-09T13:12:58.179Z,83.29
2022-12-09T13:15:32.632Z,83.23
2022-12-09T13:18:07.225Z,82.06
2022-12-09T13:20:43.183Z,82.30
2022-12-09T13:23:21.915Z,82.85
2022-12-09T13:26:02.802Z,82.00
2022-12-09T13:28:38.063Z,82.95
2022-12-09T13:31:09.899Z,81.87
2022-12-09T13:33:48.821Z,81.04
2022-12-09T13:36:20.947Z,81.72
2022-12-09T13:38:49.292Z,82.05
2022-12-09T13:41:58.777Z,81.91
2022-12-09T13:44:32.187Z,82.67
2022-12-09T13:47:24.000Z,81.56
2022-12-09T13:49:57.929Z,81.91
2022-12-09T13:52:46.203Z,80.59
2022-12-09T13:55:39.482Z,81.93
2022-12-09T13:58:54.470Z,80.52
2022-12-09T14:01:26.562Z,79.21
2022-12-09T14:04:02.720Z,79.13
2022-12-09T14:06:33.535Z,78.53
2022-12-09T14:09:04.710Z,78.97
2022-12-09T14:11:47.058Z,80.78
2022-12-09T14:14:58.492Z,79.34
2022-12-09T14:18:02.267Z,80.96
2022-12-09T14:20:36.335Z,80.67
2022-12-09T14:23:17.872Z,80.97
2022-12-09T14:26:05.761Z,80.45
2022-12-09T14:29:00.363Z,81.20
2022-12-09T14:31:50.830Z,80.86
2022-12-09T14:34:44.584Z,81.39
2022-12-09T14:37:31.459Z,81.76
2022-12-09T14:40:06.717Z,80.90
2022-12-09T14:42:44.733Z,80.80
2022-12-09T14:45:22.876Z,81.11
2022-12-09T14:47:50.504Z,81.21
2022-12-09T14:50:22.366Z,80.92
2022-12-09T14:52:52.496Z,81.27
2022-12-09T14:55:23.199Z,81.31
2022-12-09T14:57:52.504Z,81.04
2022-12-09T15:00:30.488Z,81.39
2022-12-09T15:05:56.844Z,80.75
2022-12-09T15:08:32.613Z,81.18
2022-12-09T15:11:01.684Z,81.75
2022-12-09T15:13:29.345Z,81.91
2022-12-09T15:15:57.211Z,81.37
2022-12-09T15:18:26.284Z,80.70
2022-12-09T15:20:57.664Z,80.76
2022-12-09T15:23:30.708Z,81.10
2022-12-09T15:26:00.446Z,80.05
2022-12-09T15:28:30.180Z,80.34
2022-12-09T15:31:00.161Z,81.08
2022-12-09T15:33:30.084Z,81.30
2022-12-09T15:36:02.158Z,80.67
2022-12-09T15:38:40.533Z,79.59
2022-12-09T15:41:28.148Z,80.32
2022-12-09T15:44:01.284Z,81.70
2022-12-09T15:46:31.023Z,81.53
2022-12-09T15:48:59.934Z,82.55
2022-12-09T15:51:29.938Z,82.38
2022-12-09T15:54:01.494Z,81.33
2022-12-09T15:56:33.651Z,80.50
2022-12-09T15:59:07.453Z,80.61
2022-12-09T16:01:35.725Z,81.30
2022-12-09T16:04:06.732Z,82.74
2022-12-09T16:06:37.899Z,81.29
2022-12-09T16:09:13.781Z,81.47
2022-12-09T16:11:44.268Z,81.69
2022-12-09T16:14:12.715Z,81.81
2022-12-09T16:16:45.205Z,81.20
2022-12-09T16:19:27.164Z,81.06
2022-12-09T16:21:58.786Z,82.57
2022-12-09T16:24:38.944Z,80.59
2022-12-09T16:27:19.862Z,80.82
2022-12-09T16:29:50.965Z,80.94
2022-12-09T16:32:25.165Z,81.37
2022-12-09T16:34:55.048Z,82.13
2022-12-09T16:37:30.076Z,81.24
2022-12-09T16:39:58.605Z,81.23
2022-12-09T16:42:30.294Z,81.57
2022-12-09T16:45:21.044Z,81.56
2022-12-09T16:47:49.135Z,81.13
2022-12-09T16:50:16.935Z,82.39
2022-12-09T16:52:45.907Z,82.04
2022-12-09T16:55:22.225Z,81.27
2022-12-09T16:57:50.604Z,81.90
2022-12-09T17:00:19.165Z,82.17
2022-12-09T17:02:52.231Z,81.80
2022-12-09T17:05:19.962Z,81.34
2022-12-09T17:07:49.114Z,82.71
2022-12-09T17:10:17.842Z,81.13
2022-12-09T17:12:45.953Z,80.67
2022-12-09T17:15:15.519Z,80.53
2022-12-09T17:17:48.267Z,81.54
2022-12-09T17:20:16.636Z,80.70
2022-12-09T17:22:44.286Z,80.73
2022-12-09T17:25:13.506Z,81.24
2022-12-09T17:27:41.038Z,80.86
2022-12-09T17:30:10.006Z,80.96
2022-12-09T17:32:37.586Z,80.98
2022-12-09T17:35:12.347Z,81.01
2022-12-09T17:37:40.643Z,80.82
2022-12-09T17:40:09.254Z,81.28
2022-12-09T17:42:38.394Z,81.44
2022-12-09T17:45:06.977Z,81.83
2022-12-09T17:47:34.961Z,81.01
2022-12-09T17:50:02.538Z,81.71
2022-12-09T17:52:30.076Z,81.52
2022-12-09T17:54:57.670Z,81.26
2022-12-09T17:57:25.215Z,81.12
2022-12-09T17:59:54.119Z,81.21
2022-12-09T18:02:21.783Z,81.38
2022-12-09T18:04:49.561Z,81.99
2022-12-09T18:07:17.188Z,81.76
2022-12-09T18:09:49.904Z,81.23
2022-12-09T18:12:22.442Z,81.84
2022-12-09T18:14:50.008Z,82.21
2022-12-09T18:17:19.033Z,82.57
2022-12-09T18:19:46.607Z,82.59
2022-12-09T18:22:14.219Z,82.54
2022-12-09T18:24:41.837Z,82.50
2022-12-09T18:27:09.463Z,82.54
2022-12-09T18:29:37.151Z,82.80
2022-12-09T18:32:05.112Z,82.38
2022-12-09T18:34:35.583Z,82.47
2022-12-09T18:37:03.790Z,82.40
2022-12-09T18:39:31.450Z,83.68
2022-12-09T18:41:59.179Z,83.28
2022-12-09T18:44:26.842Z,82.74
2022-12-09T18:46:54.629Z,83.01
2022-12-09T18:49:23.950Z,84.11
2022-12-09T18:51:54.208Z,83.78
2022-12-09T18:54:23.743Z,84.58
2022-12-09T18:56:51.541Z,83.63
2022-12-09T18:59:20.584Z,84.33
2022-12-09T19:01:49.527Z,83.39
2022-12-09T19:04:19.142Z,84.56
2022-12-09T19:06:48.828Z,84.38
2022-12-09T19:09:19.393Z,83.27
2022-12-09T19:11:49.081Z,83.13
2022-12-09T19:14:18.395Z,82.31
2022-12-09T19:16:47.171Z,82.61
2022-12-09T19:19:16.673Z,82.17
2022-12-09T19:21:45.865Z,83.09
2022-12-09T19:24:15.664Z,83.13
2022-12-09T19:26:45.535Z,82.93
2022-12-09T19:29:14.967Z,82.89
2022-12-09T19:31:44.570Z,83.22
2022-12-09T19:34:14.954Z,83.67
2022-12-09T19:36:43.649Z,82.91
2022-12-09T19:39:12.769Z,83.02
2022-12-09T19:41:41.538Z,83.04
2022-12-09T19:44:11.985Z,82.49
2022-12-09T19:46:40.642Z,82.50
2022-12-09T19:49:08.759Z,81.92
2022-12-09T19:51:36.459Z,82.37
2022-12-09T19:54:04.467Z,82.41
2022-12-09T19:56:32.446Z,82.44
2022-12-09T19:59:00.656Z,82.18
2022-12-09T20:01:32.469Z,82.39
2022-12-09T20:04:19.007Z,81.86
2022-12-09T20:06:51.566Z,80.88
2022-12-09T20:09:24.412Z,80.68
2022-12-09T20:11:53.123Z,81.84
2022-12-09T20:14:21.160Z,81.23
2022-12-09T20:16:50.536Z,81.32
2022-12-09T20:19:19.758Z,81.57
2022-12-09T20:21:47.619Z,80.76
2022-12-09T20:24:15.586Z,80.07
2022-12-09T20:26:44.385Z,80.61
2022-12-09T20:29:12.677Z,81.74
2022-12-09T20:31:41.577Z,80.93
2022-12-09T20:34:14.751Z,81.54
2022-12-09T20:36:44.848Z,80.21
2022-12-09T20:39:15.111Z,80.68
2022-12-09T20:41:44.519Z,81.51
2022-12-09T20:44:13.901Z,80.73
2022-12-09T20:46:45.373Z,80.84
2022-12-09T20:49:14.668Z,81.41
2022-12-09T20:51:45.297Z,81.41
2022-12-09T20:54:14.403Z,80.74
2022-12-09T20:56:42.472Z,82.02
2022-12-09T20:59:11.661Z,80.83
2022-12-09T21:01:39.685Z,80.44
2022-12-09T21:04:08.443Z,80.81
2022-12-09T21:06:40.031Z,80.11
2022-12-09T21:09:11.475Z,80.89
2022-12-09T21:11:39.787Z,81.13
2022-12-09T21:14:08.737Z,79.93
2022-12-09T21:16:39.652Z,79.92
2022-12-09T21:19:10.279Z,80.65
2022-12-09T21:21:41.319Z,80.83
2022-12-09T21:24:11.044Z,80.77
2022-12-09T21:26:38.983Z,80.51
2022-12-09T21:29:06.695Z,80.67
2022-12-09T21:31:36.254Z,80.41
2022-12-09T21:34:06.340Z,80.66
2022-12-09T21:36:35.556Z,80.57
2022-12-09T21:39:05.788Z,80.67
2022-12-09T21:41:35.608Z,81.10
2022-12-09T21:44:04.240Z,80.89
2022-12-09T21:46:33.760Z,80.47
2022-12-09T21:49:04.247Z,80.54
2022-12-09T21:51:32.833Z,81.24
2022-12-09T21:54:00.750Z,81.91
2022-12-09T21:56:32.653Z,81.05
2022-12-09T21:59:00.902Z,80.45
2022-12-09T22:01:31.054Z,79.88
2022-12-09T22:04:00.252Z,80.55
2022-12-09T22:06:28.774Z,80.77
2022-12-09T22:08:58.372Z,80.92
2022-12-09T22:11:28.815Z,79.93
2022-12-09T22:13:59.900Z,81.23
2022-12-09T22:16:29.759Z,81.19
2022-12-09T22:18:58.972Z,80.65
2022-12-09T22:21:29.370Z,80.57
2022-12-09T22:23:59.328Z,79.82
2022-12-09T22:26:27.547Z,79.75
2022-12-09T22:28:55.491Z,80.54
2022-12-09T22:31:27.293Z,80.82
2022-12-09T22:33:56.706Z,80.16
2022-12-09T22:36:24.347Z,80.11
2022-12-09T22:38:51.958Z,80.12
2022-12-09T22:41:22.117Z,80.02
2022-12-09T22:43:50.639Z,80.84
2022-12-09T22:46:20.364Z,79.86
2022-12-09T22:48:49.858Z,80.06
2022-12-09T22:51:20.686Z,80.37
2022-12-09T22:53:48.897Z,80.09
2022-12-09T22:56:16.864Z,79.95
2022-12-09T22:58:44.542Z,79.44
2022-12-09T23:01:14.527Z,79.72
2022-12-09T23:03:42.316Z,79.06
2022-12-09T23:06:11.818Z,78.89
2022-12-09T23:08:41.604Z,79.36
2022-12-09T23:11:12.049Z,79.57
2022-12-09T23:13:41.418Z,79.36
2022-12-09T23:16:12.843Z,78.83
2022-12-09T23:18:41.109Z,78.12
2022-12-09T23:21:11.959Z,79.54
2022-12-09T23:23:40.376Z,78.98
2022-12-09T23:26:10.385Z,79.48
2022-12-09T23:28:38.759Z,79.56
2022-12-09T23:31:08.817Z,79.28
2022-12-09T23:33:36.936Z,79.56
2022-12-09T23:36:08.996Z,79.57
2022-12-09T23:38:38.621Z,79.64
2022-12-09T23:41:07.195Z,78.87
2022-12-09T23:43:36.926Z,79.47
2022-12-09T23:46:11.375Z,79.80
2022-12-09T23:48:42.937Z,79.49
2022-12-09T23:51:11.892Z,79.55
2022-12-09T23:53:41.917Z,79.78
2022-12-09T23:56:12.751Z,80.27
2022-12-09T23:58:40.482Z,79.78
